createdAt,value
2023-12-10T00:02:09.429Z,100731.44
2023-12-10T00:04:37.598Z,100724.72
2023-12-10T00:07:05.045Z,100725.41
2023-12-10T00:09:32.289Z,100716.09
2023-12-10T00:11:59.401Z,100726.03
2023-12-10T00:14:26.728Z,100739.84
2023-12-10T00:16:54.448Z,100727.88
2023-12-10T00:19:21.753Z,100733.59
2023-12-10T00:21:49.124Z,100721.38
2023-12-10T00:24:16.281Z,100707.44
2023-12-10T00:26:43.365Z,100706.31
2023-12-10T00:29:10.417Z,100686.31
2023-12-10T00:31:37.709Z,100717.19
2023-12-10T00:34:04.912Z,100702.75
2023-12-10T00:36:32.269Z,100712.00
2023-12-10T00:39:00.929Z,100711.84
2023-12-10T00:41:28.367Z,100706.88
2023-12-10T00:43:55.731Z,100710.00
2023-12-10T00:46:22.796Z,100713.19
2023-12-10T00:48:50.270Z,100727.78
2023-12-10T00:51:24.462Z,100717.13
2023-12-10T00:53:52.039Z,100720.34
2023-12-10T00:56:19.131Z,100722.13
2023-12-10T00:58:46.227Z,100720.31
2023-12-10T01:01:13.419Z,100725.47
2023-12-10T01:03:41.007Z,100733.38
2023-12-10T01:06:09.714Z,100734.38
2023-12-10T01:08:37.152Z,100727.78
2023-12-10T01:11:05.520Z,100718.22
2023-12-10T01:13:32.649Z,100711.63
2023-12-10T01:15:59.734Z,100697.56
2023-12-10T01:18:26.997Z,100697.81
2023-12-10T01:20:54.176Z,100692.59
2023-12-10T01:23:21.261Z,100683.69
2023-12-10T01:25:48.376Z,100677.88
2023-12-10T01:28:16.013Z,100686.59
2023-12-10T01:30:43.204Z,100687.47
2023-12-10T01:33:11.547Z,100680.94
2023-12-10T01:35:39.319Z,100673.72
2023-12-10T01:38:06.762Z,100669.94
2023-12-10T01:40:34.326Z,100663.19
2023-12-10T01:43:07.230Z,100674.06
2023-12-10T01:45:34.609Z,100676.56
2023-12-10T01:48:08.076Z,100673.22
2023-12-10T01:50:36.707Z,100666.50
2023-12-10T01:53:04.329Z,100659.69
2023-12-10T01:55:31.735Z,100669.19
2023-12-10T01:57:59.384Z,100658.09
2023-12-10T02:00:27.443Z,100656.84
2023-12-10T02:02:54.708Z,100648.31
2023-12-10T02:05:22.004Z,100633.13
2023-12-10T02:07:51.050Z,100649.00
2023-12-10T02:10:18.086Z,100660.34
2023-12-10T02:12:47.760Z,100647.50
2023-12-10T02:15:21.637Z,100650.63
2023-12-10T02:17:53.445Z,100656.25
2023-12-10T02:20:20.984Z,100670.50
2023-12-10T02:22:58.924Z,100683.47
2023-12-10T02:25:36.053Z,100682.16
2023-12-10T02:28:04.917Z,100678.50
2023-12-10T02:30:32.691Z,100678.56
2023-12-10T02:33:00.629Z,100655.59
2023-12-10T02:35:28.128Z,100658.91
2023-12-10T02:37:56.043Z,100660.31
2023-12-10T02:40:23.454Z,100651.81
2023-12-10T02:42:50.662Z,100645.41
2023-12-10T02:45:18.085Z,100648.84
2023-12-10T02:47:45.752Z,100645.41
2023-12-10T02:50:12.970Z,100647.34
2023-12-10T02:52:40.118Z,100634.38
2023-12-10T02:55:10.443Z,100637.69
2023-12-10T02:57:38.253Z,100628.97
2023-12-10T03:00:06.772Z,100643.44
2023-12-10T03:02:33.953Z,100642.16
2023-12-10T03:05:01.173Z,100650.59
2023-12-10T03:07:30.645Z,100636.69
2023-12-10T03:09:57.720Z,100640.06
2023-12-10T03:12:24.871Z,100636.31
2023-12-10T03:14:51.889Z,100625.47
2023-12-10T03:17:18.972Z,100638.19
2023-12-10T03:19:46.413Z,100635.66
2023-12-10T03:22:13.677Z,100634.09
2023-12-10T03:24:40.833Z,100627.22
2023-12-10T03:27:07.883Z,100629.72
2023-12-10T03:29:35.004Z,100627.84
2023-12-10T03:32:02.127Z,100639.66
2023-12-10T03:34:29.401Z,100636.38
2023-12-10T03:36:56.771Z,100627.91
2023-12-10T03:39:23.973Z,100625.88
2023-12-10T03:41:51.440Z,100624.75
2023-12-10T03:44:18.548Z,100637.47
2023-12-10T03:46:45.657Z,100636.91
2023-12-10T03:49:13.336Z,100625.84
2023-12-10T03:51:40.460Z,100635.72
2023-12-10T03:54:07.670Z,100639.00
2023-12-10T03:56:34.781Z,100639.41
2023-12-10T03:59:01.991Z,100628.97
2023-12-10T04:01:29.151Z,100637.72
2023-12-10T04:03:56.891Z,100629.16
2023-12-10T04:06:24.046Z,100647.72
2023-12-10T04:08:51.100Z,100631.84
2023-12-10T04:11:24.999Z,100636.91
2023-12-10T04:13:52.188Z,100637.00
2023-12-10T04:16:31.320Z,100630.44
2023-12-10T04:18:58.781Z,100630.63
2023-12-10T04:21:26.152Z,100640.53
2023-12-10T04:23:53.565Z,100641.53
2023-12-10T04:26:20.956Z,100631.88
2023-12-10T04:28:48.134Z,100635.53
2023-12-10T04:31:15.973Z,100635.38
2023-12-10T04:33:46.326Z,100630.09
2023-12-10T04:36:15.062Z,100623.19
2023-12-10T04:38:44.170Z,100622.44
2023-12-10T04:41:11.332Z,100622.28
2023-12-10T04:43:38.517Z,100619.13
2023-12-10T04:46:05.959Z,100618.84
2023-12-10T04:48:34.000Z,100633.47
2023-12-10T04:51:01.371Z,100638.88
2023-12-10T04:53:28.631Z,100631.91
2023-12-10T04:55:55.663Z,100630.31
2023-12-10T04:58:22.802Z,100630.59
2023-12-10T05:00:49.983Z,100636.84
2023-12-10T05:03:17.153Z,100629.47
2023-12-10T05:05:44.345Z,100639.56
2023-12-10T05:08:11.491Z,100642.81
2023-12-10T05:10:38.733Z,100648.06
2023-12-10T05:13:05.857Z,100644.41
2023-12-10T05:15:33.133Z,100647.88
2023-12-10T05:18:04.010Z,100642.56
2023-12-10T05:20:31.930Z,100637.66
2023-12-10T05:23:01.318Z,100635.00
2023-12-10T05:25:32.420Z,100637.53
2023-12-10T05:28:00.370Z,100636.25
2023-12-10T05:30:27.681Z,100635.34
2023-12-10T05:32:54.955Z,100630.84
2023-12-10T05:35:22.354Z,100631.50
2023-12-10T05:37:49.608Z,100637.84
2023-12-10T05:40:16.762Z,100636.56
2023-12-10T05:42:45.860Z,100636.31
2023-12-10T05:45:13.143Z,100634.47
2023-12-10T05:47:40.520Z,100618.06
2023-12-10T05:50:07.930Z,100627.69
2023-12-10T05:52:35.023Z,100621.56
2023-12-10T05:55:02.108Z,100616.50
2023-12-10T05:57:31.825Z,100618.31
2023-12-10T05:59:58.976Z,100624.16
2023-12-10T06:02:26.186Z,100613.81
2023-12-10T06:04:53.581Z,100617.78
2023-12-10T06:07:20.800Z,100620.78
2023-12-10T06:09:48.183Z,100616.91
2023-12-10T06:12:15.474Z,100616.66
2023-12-10T06:14:42.609Z,100622.16
2023-12-10T06:17:10.918Z,100616.91
2023-12-10T06:19:38.295Z,100622.78
2023-12-10T06:22:05.589Z,100627.72
2023-12-10T06:24:32.858Z,100621.75
2023-12-10T06:27:00.013Z,100618.94
2023-12-10T06:29:27.161Z,100620.59
2023-12-10T06:31:54.273Z,100619.56
2023-12-10T06:34:21.572Z,100620.66
2023-12-10T06:36:48.944Z,100620.72
2023-12-10T06:39:17.712Z,100618.69
2023-12-10T06:41:44.864Z,100610.72
2023-12-10T06:44:22.354Z,100624.28
2023-12-10T06:46:50.551Z,100608.31
2023-12-10T06:49:18.282Z,100615.91
2023-12-10T06:51:45.563Z,100625.28
2023-12-10T06:54:13.275Z,100625.41
2023-12-10T06:56:42.115Z,100628.66
2023-12-10T06:59:09.910Z,100625.97
2023-12-10T07:01:39.026Z,100618.50
2023-12-10T07:04:09.136Z,100615.16
2023-12-10T07:06:37.029Z,100630.50
2023-12-10T07:09:08.046Z,100623.50
2023-12-10T07:11:35.556Z,100632.53
2023-12-10T07:14:02.655Z,100624.72
2023-12-10T07:16:29.809Z,100625.97
2023-12-10T07:18:57.233Z,100627.03
2023-12-10T07:21:24.547Z,100628.50
2023-12-10T07:23:51.692Z,100621.38
2023-12-10T07:26:26.706Z,100625.59
2023-12-10T07:28:53.961Z,100621.91
2023-12-10T07:31:21.102Z,100632.91
2023-12-10T07:33:48.670Z,100631.16
2023-12-10T07:36:16.227Z,100629.91
2023-12-10T07:38:43.394Z,100628.25
2023-12-10T07:41:10.768Z,100621.78
2023-12-10T07:43:37.874Z,100625.59
2023-12-10T07:46:05.496Z,100619.22
2023-12-10T07:48:34.843Z,100635.00
2023-12-10T07:51:03.110Z,100628.13
2023-12-10T07:53:30.322Z,100620.53
2023-12-10T07:55:57.657Z,100613.94
2023-12-10T07:58:24.882Z,100624.59
2023-12-10T08:00:52.807Z,100616.38
2023-12-10T08:03:20.244Z,100627.88
2023-12-10T08:05:47.811Z,100627.72
2023-12-10T08:08:14.947Z,100627.63
2023-12-10T08:10:42.114Z,100633.81
2023-12-10T08:13:09.637Z,100622.44
2023-12-10T08:15:37.780Z,100608.00
2023-12-10T08:18:05.250Z,100616.53
2023-12-10T08:20:32.536Z,100613.47
2023-12-10T08:22:59.761Z,100623.56
2023-12-10T08:25:29.678Z,100623.31
2023-12-10T08:27:58.331Z,100616.44
2023-12-10T08:30:26.248Z,100619.19
2023-12-10T08:32:53.499Z,100615.25
2023-12-10T08:35:20.847Z,100604.06
2023-12-10T08:37:48.384Z,100619.38
2023-12-10T08:40:16.168Z,100611.09
2023-12-10T08:42:43.345Z,100597.13
2023-12-10T08:45:10.925Z,100607.78
2023-12-10T08:47:39.012Z,100612.72
2023-12-10T08:50:06.946Z,100609.47
2023-12-10T08:52:34.150Z,100614.28
2023-12-10T08:55:02.585Z,100619.56
2023-12-10T08:57:31.938Z,100603.44
2023-12-10T09:00:02.313Z,100599.41
2023-12-10T09:02:33.214Z,100607.16
2023-12-10T09:05:00.843Z,100599.34
2023-12-10T09:07:31.148Z,100601.22
2023-12-10T09:10:08.768Z,100595.91
2023-12-10T09:12:39.994Z,100603.81
2023-12-10T09:15:08.902Z,100600.00
2023-12-10T09:17:36.000Z,100605.63
2023-12-10T09:20:03.771Z,100589.50
2023-12-10T09:22:32.079Z,100591.13
2023-12-10T09:24:59.370Z,100594.16
2023-12-10T09:27:26.642Z,100600.06
2023-12-10T09:29:53.745Z,100590.13
2023-12-10T09:32:25.096Z,100592.38
2023-12-10T09:34:52.478Z,100571.75
2023-12-10T09:37:19.781Z,100578.63
2023-12-10T09:39:47.239Z,100584.81
2023-12-10T09:42:14.522Z,100587.38
2023-12-10T09:44:41.863Z,100589.88
2023-12-10T09:47:11.154Z,100587.19
2023-12-10T09:49:41.825Z,100587.34
2023-12-10T09:52:10.589Z,100587.22
2023-12-10T09:54:43.604Z,100585.94
2023-12-10T09:57:13.221Z,100583.69
2023-12-10T09:59:41.319Z,100588.72
2023-12-10T10:02:11.774Z,100588.44
2023-12-10T10:04:42.699Z,100596.56
2023-12-10T10:07:10.472Z,100595.69
2023-12-10T10:09:38.861Z,100607.38
2023-12-10T10:12:07.384Z,100586.84
2023-12-10T10:14:34.713Z,100586.91
2023-12-10T10:17:01.944Z,100594.13
2023-12-10T10:19:29.200Z,100582.84
2023-12-10T10:21:56.563Z,100590.91
2023-12-10T10:24:26.097Z,100579.16
2023-12-10T10:26:54.065Z,100567.31
2023-12-10T10:29:23.937Z,100559.25
2023-12-10T10:31:52.676Z,100554.69
2023-12-10T10:34:20.437Z,100558.28
2023-12-10T10:36:47.673Z,100552.38
2023-12-10T10:39:14.972Z,100545.94
2023-12-10T10:41:42.093Z,100542.94
2023-12-10T10:44:09.135Z,100563.09
2023-12-10T10:46:37.134Z,100562.06
2023-12-10T10:49:05.064Z,100557.41
2023-12-10T10:51:34.464Z,100545.78
2023-12-10T10:54:05.745Z,100553.59
2023-12-10T10:56:33.509Z,100568.34
2023-12-10T10:59:01.283Z,100555.06
2023-12-10T11:01:41.148Z,100553.78
2023-12-10T11:04:13.568Z,100551.94
2023-12-10T11:06:42.318Z,100544.00
2023-12-10T11:09:10.143Z,100548.19
2023-12-10T11:11:41.323Z,100559.97
2023-12-10T11:14:22.752Z,100554.31
2023-12-10T11:17:10.842Z,100555.13
2023-12-10T11:19:38.139Z,100553.25
2023-12-10T11:22:05.274Z,100560.84
2023-12-10T11:24:32.523Z,100558.09
2023-12-10T11:27:00.471Z,100561.47
2023-12-10T11:29:27.683Z,100571.28
2023-12-10T11:31:54.956Z,100556.44
2023-12-10T11:34:22.531Z,100552.75
2023-12-10T11:36:50.856Z,100555.72
2023-12-10T11:39:18.281Z,100558.31
2023-12-10T11:41:56.205Z,100562.53
2023-12-10T11:44:28.649Z,100552.63
2023-12-10T11:46:58.237Z,100556.25
2023-12-10T11:49:26.672Z,100553.31
2023-12-10T11:51:54.349Z,100560.66
2023-12-10T11:54:21.922Z,100555.06
2023-12-10T11:56:49.440Z,100565.66
2023-12-10T11:59:20.020Z,100558.66
2023-12-10T12:01:48.093Z,100557.88
2023-12-10T12:04:17.127Z,100574.44
2023-12-10T12:06:44.934Z,100561.25
2023-12-10T12:09:18.488Z,100556.78
2023-12-10T12:11:45.802Z,100561.03
2023-12-10T12:14:19.640Z,100558.56
2023-12-10T12:16:47.761Z,100555.97
2023-12-10T12:19:28.454Z,100563.00
2023-12-10T12:21:58.893Z,100563.28
2023-12-10T12:24:26.241Z,100560.25
2023-12-10T12:26:53.362Z,100573.09
2023-12-10T12:29:23.058Z,100570.94
2023-12-10T12:32:08.551Z,100588.94
2023-12-10T12:34:40.167Z,100586.69
2023-12-10T12:37:07.360Z,100561.75
2023-12-10T12:39:34.495Z,100568.47
2023-12-10T12:42:01.632Z,100576.97
2023-12-10T12:44:28.943Z,100572.31
2023-12-10T12:46:56.008Z,100567.78
2023-12-10T12:49:23.943Z,100560.81
2023-12-10T12:51:51.173Z,100564.13
2023-12-10T12:54:18.604Z,100553.53
2023-12-10T12:56:46.163Z,100546.28
2023-12-10T12:59:16.517Z,100545.84
2023-12-10T13:01:44.100Z,100554.44
2023-12-10T13:04:11.560Z,100548.34
2023-12-10T13:06:39.020Z,100544.84
2023-12-10T13:09:08.549Z,100551.78
2023-12-10T13:11:37.831Z,100556.63
2023-12-10T13:14:05.443Z,100552.34
2023-12-10T13:16:32.610Z,100540.28
2023-12-10T13:23:13.639Z,100526.75
2023-12-10T13:26:06.895Z,100527.22
2023-12-10T13:28:34.205Z,100536.13
2023-12-10T13:31:04.619Z,100531.75
2023-12-10T13:33:31.960Z,100540.38
2023-12-10T13:35:59.210Z,100537.91
2023-12-10T13:38:26.300Z,100543.31
2023-12-10T13:40:55.495Z,100541.91
2023-12-10T13:43:22.735Z,100543.97
2023-12-10T13:45:50.747Z,100551.91
2023-12-10T13:48:18.089Z,100569.25
2023-12-10T13:50:45.400Z,100545.28
2023-12-10T13:53:12.764Z,100565.13
2023-12-10T13:55:39.863Z,100557.38
2023-12-10T13:58:07.208Z,100551.94
2023-12-10T14:00:34.951Z,100547.22
2023-12-10T14:03:05.382Z,100548.28
2023-12-10T14:05:32.532Z,100557.34
2023-12-10T14:07:59.719Z,100564.91
2023-12-10T14:10:29.961Z,100558.56
2023-12-10T14:12:59.787Z,100566.06
2023-12-10T14:15:27.137Z,100561.72
2023-12-10T14:17:54.453Z,100557.44
2023-12-10T14:20:21.701Z,100552.63
2023-12-10T14:22:48.935Z,100571.72
2023-12-10T14:25:16.295Z,100570.56
2023-12-10T14:27:44.852Z,100573.75
2023-12-10T14:30:12.384Z,100575.53
2023-12-10T14:32:40.037Z,100565.06
2023-12-10T14:35:07.710Z,100561.66
2023-12-10T14:37:40.224Z,100559.88
2023-12-10T14:40:10.064Z,100564.19
2023-12-10T14:42:37.571Z,100563.47
2023-12-10T14:45:07.081Z,100552.94
2023-12-10T14:47:35.010Z,100546.28
2023-12-10T14:50:09.138Z,100553.59
2023-12-10T14:52:39.566Z,100549.19
2023-12-10T14:55:19.255Z,100550.94
2023-12-10T14:57:49.687Z,100554.25
2023-12-10T15:00:20.213Z,100551.31
2023-12-10T15:02:49.045Z,100534.69
2023-12-10T15:05:16.456Z,100531.16
2023-12-10T15:07:44.091Z,100540.50
2023-12-10T15:10:17.107Z,100536.03
2023-12-10T15:12:45.677Z,100540.03
2023-12-10T15:15:12.979Z,100548.50
2023-12-10T15:17:44.465Z,100549.28
2023-12-10T15:20:14.467Z,100548.88
2023-12-10T15:22:44.435Z,100555.94
2023-12-10T15:25:19.469Z,100561.59
2023-12-10T15:27:50.855Z,100571.25
2023-12-10T15:30:19.344Z,100571.88
2023-12-10T15:32:51.075Z,100563.34
2023-12-10T15:35:18.761Z,100567.25
2023-12-10T15:37:48.835Z,100563.94
2023-12-10T15:40:17.721Z,100562.41
2023-12-10T15:42:46.067Z,100563.59
2023-12-10T15:45:15.002Z,100568.41
2023-12-10T15:47:42.733Z,100574.16
2023-12-10T15:50:10.777Z,100572.22
2023-12-10T15:52:41.035Z,100569.81
2023-12-10T15:55:09.990Z,100563.56
2023-12-10T15:57:40.302Z,100573.66
2023-12-10T16:00:09.194Z,100576.50
2023-12-10T16:02:41.189Z,100575.97
2023-12-10T16:05:09.888Z,100566.47
2023-12-10T16:07:48.199Z,100578.91
2023-12-10T16:10:22.366Z,100581.91
2023-12-10T16:12:50.411Z,100574.94
2023-12-10T16:15:18.458Z,100577.97
2023-12-10T16:17:51.229Z,100574.41
2023-12-10T16:20:19.717Z,100577.66
2023-12-10T16:22:53.933Z,100579.38
2023-12-10T16:25:21.428Z,100575.91
2023-12-10T16:27:50.441Z,100573.16
2023-12-10T16:30:24.968Z,100566.28
2023-12-10T16:32:57.057Z,100554.06
2023-12-10T16:35:25.796Z,100576.69
2023-12-10T16:37:58.905Z,100561.91
2023-12-10T16:40:27.002Z,100570.56
2023-12-10T16:42:57.875Z,100575.00
2023-12-10T16:45:25.463Z,100566.06
2023-12-10T16:47:53.006Z,100572.06
2023-12-10T16:50:20.648Z,100578.19
2023-12-10T16:52:48.276Z,100563.41
2023-12-10T16:55:16.272Z,100570.75
2023-12-10T16:57:43.889Z,100579.53
2023-12-10T17:00:13.271Z,100577.84
2023-12-10T17:02:43.019Z,100572.47
2023-12-10T17:05:11.970Z,100567.28
2023-12-10T17:07:40.168Z,100569.78
2023-12-10T17:10:08.007Z,100562.25
2023-12-10T17:12:35.732Z,100561.94
2023-12-10T17:15:03.702Z,100560.53
2023-12-10T17:17:35.521Z,100564.63
2023-12-10T17:20:03.218Z,100554.69
2023-12-10T17:22:31.297Z,100566.72
2023-12-10T17:24:58.835Z,100566.78
2023-12-10T17:27:26.593Z,100560.53
2023-12-10T17:29:54.196Z,100572.69
2023-12-10T17:32:21.497Z,100569.91
2023-12-10T17:34:49.664Z,100561.13
2023-12-10T17:37:17.414Z,100567.75
2023-12-10T17:39:45.011Z,100562.88
2023-12-10T17:42:13.038Z,100561.41
2023-12-10T17:44:47.452Z,100559.50
2023-12-10T17:47:22.102Z,100568.28
2023-12-10T17:49:49.660Z,100562.84
2023-12-10T17:52:17.644Z,100556.66
2023-12-10T17:54:45.113Z,100553.91
2023-12-10T17:57:12.803Z,100555.75
2023-12-10T17:59:42.673Z,100574.09
2023-12-10T18:02:10.293Z,100555.41
2023-12-10T18:04:41.364Z,100561.75
2023-12-10T18:07:08.737Z,100569.66
2023-12-10T18:09:36.103Z,100573.06
2023-12-10T18:12:03.690Z,100588.94
2023-12-10T18:14:31.111Z,100573.69
2023-12-10T18:16:58.654Z,100566.53
2023-12-10T18:19:32.305Z,100554.44
2023-12-10T18:21:59.647Z,100562.84
2023-12-10T18:24:29.561Z,100563.94
2023-12-10T18:26:57.033Z,100559.19
2023-12-10T18:29:24.819Z,100560.53
2023-12-10T18:31:55.017Z,100567.72
2023-12-10T18:34:22.487Z,100566.38
2023-12-10T18:36:54.755Z,100566.72
2023-12-10T18:39:21.807Z,100570.50
2023-12-10T18:41:50.164Z,100562.00
2023-12-10T18:44:18.490Z,100558.75
2023-12-10T18:46:46.331Z,100554.22
2023-12-10T18:49:13.721Z,100571.91
2023-12-10T18:51:40.962Z,100552.91
2023-12-10T18:54:10.143Z,100557.53
2023-12-10T18:57:27.503Z,100557.50
2023-12-10T18:59:54.660Z,100565.28
2023-12-10T19:02:22.664Z,100557.41
2023-12-10T19:04:55.240Z,100557.59
2023-12-10T19:07:22.399Z,100543.25
2023-12-10T19:09:49.598Z,100540.34
2023-12-10T19:12:20.179Z,100548.44
2023-12-10T19:14:47.392Z,100552.78
2023-12-10T19:17:14.756Z,100549.28
2023-12-10T19:19:42.144Z,100554.13
2023-12-10T19:22:10.717Z,100553.66
2023-12-10T19:24:40.340Z,100557.75
2023-12-10T19:27:07.772Z,100556.50
2023-12-10T19:29:35.149Z,100563.22
2023-12-10T19:32:02.476Z,100567.59
2023-12-10T19:34:29.792Z,100560.53
2023-12-10T19:36:57.093Z,100570.50
2023-12-10T19:39:24.728Z,100576.28
2023-12-10T19:41:51.835Z,100572.31
2023-12-10T19:44:22.097Z,100574.41
2023-12-10T19:46:49.339Z,100560.50
2023-12-10T19:49:18.236Z,100567.88
2023-12-10T19:51:45.487Z,100565.56
2023-12-10T19:54:16.792Z,100565.63
2023-12-10T19:56:52.775Z,100568.16
2023-12-10T19:59:37.304Z,100553.59
2023-12-10T20:02:19.029Z,100556.16
2023-12-10T20:05:00.603Z,100558.25
2023-12-10T20:07:38.690Z,100544.03
2023-12-10T20:10:16.076Z,100549.97
2023-12-10T20:12:54.983Z,100537.00
2023-12-10T20:15:37.634Z,100536.66
2023-12-10T20:18:18.740Z,100538.81
2023-12-10T20:20:57.276Z,100523.34
2023-12-10T20:23:55.785Z,100530.06
2023-12-10T20:26:44.848Z,100531.38
2023-12-10T20:32:05.998Z,100551.81
2023-12-10T20:34:35.335Z,100565.38
2023-12-10T20:37:03.066Z,100559.94
2023-12-10T20:39:38.184Z,100562.44
2023-12-10T20:42:25.695Z,100551.78
2023-12-10T20:44:53.153Z,100562.69
2023-12-10T20:47:29.429Z,100544.69
2023-12-10T20:49:56.669Z,100533.13
2023-12-10T20:52:23.719Z,100526.03
2023-12-10T20:54:51.805Z,100523.00
2023-12-10T20:57:18.973Z,100523.75
2023-12-10T20:59:46.595Z,100528.44
2023-12-10T21:02:13.791Z,100524.66
2023-12-10T21:04:44.460Z,100518.22
2023-12-10T21:07:11.918Z,100521.47
2023-12-10T21:09:39.128Z,100511.38
2023-12-10T21:12:06.456Z,100522.56
2023-12-10T21:14:33.625Z,100516.19
2023-12-10T21:17:06.477Z,100515.88
2023-12-10T21:19:35.439Z,100518.22
2023-12-10T21:22:03.180Z,100516.91
2023-12-10T21:24:30.307Z,100519.13
2023-12-10T21:26:57.372Z,100522.53
2023-12-10T21:29:24.640Z,100512.59
2023-12-10T21:31:51.845Z,100508.88
2023-12-10T21:34:19.105Z,100519.03
2023-12-10T21:36:46.453Z,100513.75
2023-12-10T21:39:13.558Z,100516.63
2023-12-10T21:41:40.789Z,100507.97
2023-12-10T21:44:08.113Z,100507.19
2023-12-10T21:46:36.724Z,100523.13
2023-12-10T21:49:04.275Z,100535.44
2023-12-10T21:51:31.555Z,100525.47
2023-12-10T21:54:01.948Z,100524.97
2023-12-10T21:56:29.145Z,100518.34
2023-12-10T21:58:56.433Z,100527.38
2023-12-10T22:01:23.650Z,100525.41
2023-12-10T22:03:52.004Z,100530.00
2023-12-10T22:06:19.455Z,100521.25
2023-12-10T22:08:47.393Z,100518.63
2023-12-10T22:11:15.839Z,100532.88
2023-12-10T22:13:43.073Z,100515.72
2023-12-10T22:16:10.624Z,100508.56
2023-12-10T22:18:37.923Z,100498.22
2023-12-10T22:21:07.937Z,100511.09
2023-12-10T22:23:35.194Z,100506.56
2023-12-10T22:26:03.104Z,100501.59
2023-12-10T22:28:30.244Z,100491.69
2023-12-10T22:30:57.372Z,100492.72
2023-12-10T22:33:24.535Z,100500.47
2023-12-10T22:35:51.742Z,100493.22
2023-12-10T22:38:19.172Z,100492.97
2023-12-10T22:40:46.316Z,100500.66
2023-12-10T22:43:15.788Z,100495.66
2023-12-10T22:45:46.082Z,100495.13
2023-12-10T22:48:13.372Z,100488.72
2023-12-10T22:50:41.592Z,100489.00
2023-12-10T22:53:08.848Z,100477.94
2023-12-10T22:55:35.901Z,100484.59
2023-12-10T22:58:03.019Z,100471.69
2023-12-10T23:00:31.704Z,100478.09
2023-12-10T23:02:58.897Z,100476.81
2023-12-10T23:05:26.182Z,100473.56
2023-12-10T23:07:53.290Z,100472.09
2023-12-10T23:10:20.513Z,100469.84
2023-12-10T23:12:47.874Z,100458.78
2023-12-10T23:15:15.217Z,100456.28
2023-12-10T23:17:43.587Z,100448.41
2023-12-10T23:20:13.178Z,100451.66
2023-12-10T23:22:40.475Z,100457.34
2023-12-10T23:25:08.146Z,100465.53
2023-12-10T23:27:35.445Z,100466.44
2023-12-10T23:30:02.739Z,100453.75
2023-12-10T23:32:32.540Z,100445.97
2023-12-10T23:35:01.004Z,100456.91
2023-12-10T23:37:28.414Z,100446.47
2023-12-10T23:39:55.887Z,100439.31
2023-12-10T23:42:23.106Z,100444.88
2023-12-10T23:44:50.270Z,100442.53
2023-12-10T23:47:17.406Z,100438.09
2023-12-10T23:49:44.837Z,100442.06
2023-12-10T23:52:12.238Z,100440.16
2023-12-10T23:54:40.274Z,100439.59
2023-12-10T23:57:08.835Z,100439.09
2023-12-10T23:59:36.298Z,100441.47
